Bradenton, FL (34209)

10:20 AM EST en Noviembre 22, 2014 (GMT -0500)
KFLPALME10 | Change Station
CLOSE
Current Station
Estación meteorológica personal
Location: Palmetto, FL
Altura: 3 ft
Estaciones meteorológicas cercanas

Alt 3 ft 27.53 °N, 82.60 °W | Updated 11 minutes ago

Parcialmente nublado
Parcialmente nublado
73.6 ° F
Sensación térmica 73 ° F
N
8.9
Viento Variable Viento desde ESE

Hoy
Alta -- | Baja -- ° F
--% Posibilidad de precipitaciones
Ayer
Alta -- | Baja -- ° F
Precip. -- pul
6:56 AM 5:36 PM
Luna nueva, 0% visible
Presión 30.19 pul
Visibilidad 10.0 Millas
Nubes Nubes dispersas 6500 ft
Índice de calor 73 ° F
Punto de rocío 68 ° F
Humedad 83%
Precipitaciones 0.02 pul
Espesor de la nieve No disponible.
UV 3 de una escala de 12
Polen 4.50 de una escala de 12
Calidad del aire No disponible.
Flu Activity No disponible.
METAR KSRQ 221453Z 09012G21KT 10SM SCT065 23/18 A3019 RMK AO2 SLP221 T02280183 53009

More Conditions Fewer Conditions

Presión 30.19 pul
Visibilidad 10.0 Millas
Nubes Nubes dispersas 6500 ft
Índice de calor 73 ° F
Punto de rocío 68 ° F
Humedad 83%
Precipitaciones 0.02 pul
Espesor de la nieve No disponible.
UV 3 de una escala de 12
Polen 4.50 de una escala de 12
Calidad del aire No disponible.
Flu Activity No disponible.
METAR KSRQ 221453Z 09012G21KT 10SM SCT065 23/18 A3019 RMK AO2 SLP221 T02280183 53009

More Conditions Fewer Conditions

10-Day Weather Forecast

Almanac

Astronomía

Nov. 22, 2014 Salida Puesta
Hora real
Crepúsculo civil
Crepúsculo náutico
Crepúsculo astronómico
Luna
Horas de luz
Horas de luz
Tomorrow will be .
, % of the Moon is Illuminated

Extremos de hoy

Máximos del estado Bajos del estado

Community

WunderPhotos

Upload Photos

1,772,832 ¡fotos cargadas!

WunderBlogs® & News

Nearby

Calidad del aire

  Calidad del aire Índice AQ Contaminante
Not available.

Grosos de nieve

Estación Profundido Altura

Actividad de terremotos

Ciudad Distance Mag. Tiempo y dato
Magnitud mínima muestra es 2,5.

Temperaturas de aguas costeras

Lugar Temperatura

Estaciones meteorológicas cercanas